createdAt,value
2017-10-15T00:01:43.264Z,17.23
2017-10-15T00:04:11.815Z,12.10
2017-10-15T00:06:39.473Z,11.20
2017-10-15T00:09:07.081Z,10.60
2017-10-15T00:11:35.451Z,9.90
2017-10-15T00:14:03.088Z,11.67
2017-10-15T00:16:30.705Z,12.33
2017-10-15T00:18:58.391Z,11.73
2017-10-15T00:21:25.993Z,12.17
2017-10-15T00:23:53.614Z,11.23
2017-10-15T00:26:21.249Z,10.27
2017-10-15T00:28:48.973Z,11.37
2017-10-15T00:31:18.149Z,14.00
2017-10-15T00:33:45.765Z,13.53
2017-10-15T00:36:14.149Z,8.77
2017-10-15T00:38:41.814Z,11.20
2017-10-15T00:41:09.433Z,10.23
2017-10-15T00:43:37.097Z,12.07
2017-10-15T00:46:04.712Z,11.30
2017-10-15T00:48:32.343Z,10.43
2017-10-15T00:51:00.768Z,11.00
2017-10-15T00:53:28.449Z,13.60
2017-10-15T00:55:56.114Z,13.20
2017-10-15T00:58:23.725Z,14.00
2017-10-15T01:00:51.375Z,12.13
2017-10-15T01:03:19.028Z,15.60
2017-10-15T01:05:47.406Z,15.30
2017-10-15T01:08:15.045Z,18.07
2017-10-15T01:10:42.706Z,12.70
2017-10-15T01:13:10.317Z,15.13
2017-10-15T01:15:37.909Z,15.10
2017-10-15T01:18:05.541Z,13.87
2017-10-15T01:20:33.145Z,14.10
2017-10-15T01:23:00.792Z,12.13
2017-10-15T01:25:28.394Z,11.00
2017-10-15T01:27:56.761Z,11.97
2017-10-15T01:30:25.261Z,10.27
2017-10-15T01:32:53.641Z,11.53
2017-10-15T01:35:22.013Z,11.50
2017-10-15T01:37:50.437Z,13.47
2017-10-15T01:40:18.143Z,12.47
2017-10-15T01:42:46.545Z,12.53
2017-10-15T01:45:14.926Z,11.80
2017-10-15T01:47:42.543Z,11.83
2017-10-15T01:50:10.179Z,14.00
2017-10-15T01:52:37.781Z,14.87
2017-10-15T01:55:05.424Z,16.87
2017-10-15T01:57:33.041Z,18.40
2017-10-15T02:00:00.660Z,15.67
2017-10-15T02:02:28.297Z,14.07
2017-10-15T02:04:55.892Z,17.10
2017-10-15T02:07:24.261Z,14.57
2017-10-15T02:09:51.903Z,14.87
2017-10-15T02:12:19.504Z,14.20
2017-10-15T02:14:47.873Z,14.30
2017-10-15T02:17:16.281Z,13.90
2017-10-15T02:19:43.889Z,15.90
2017-10-15T02:22:11.502Z,14.13
2017-10-15T02:24:39.141Z,15.70
2017-10-15T02:27:07.515Z,13.60
2017-10-15T02:29:35.917Z,17.50
2017-10-15T02:32:03.523Z,17.80
2017-10-15T02:34:31.124Z,11.33
2017-10-15T02:36:59.529Z,17.70
2017-10-15T02:39:27.141Z,18.27
2017-10-15T02:41:54.745Z,17.77
2017-10-15T02:44:22.409Z,12.40
2017-10-15T02:46:50.019Z,17.37
2017-10-15T02:49:17.629Z,16.83
2017-10-15T02:51:45.265Z,13.77
2017-10-15T02:54:13.637Z,11.43
2017-10-15T02:56:42.044Z,15.10
2017-10-15T02:59:09.732Z,9.90
2017-10-15T03:01:37.350Z,9.60
2017-10-15T03:04:05.745Z,13.37
2017-10-15T03:06:33.372Z,12.33
2017-10-15T03:09:01.017Z,12.30
2017-10-15T03:11:28.661Z,13.80
2017-10-15T03:13:56.275Z,14.37
2017-10-15T03:16:23.906Z,13.87
2017-10-15T03:18:51.514Z,14.13
2017-10-15T03:21:19.162Z,15.50
2017-10-15T03:23:46.789Z,15.27
2017-10-15T03:26:14.397Z,15.03
2017-10-15T03:28:42.093Z,16.17
2017-10-15T03:31:09.709Z,14.70
2017-10-15T03:33:37.361Z,16.30
2017-10-15T03:36:05.732Z,16.73
2017-10-15T03:38:34.107Z,15.37
2017-10-15T03:41:01.771Z,16.17
2017-10-15T03:43:30.156Z,15.67
2017-10-15T03:45:58.565Z,15.27
2017-10-15T03:48:26.172Z,14.33
2017-10-15T03:50:53.824Z,14.93
2017-10-15T03:53:21.422Z,17.33
2017-10-15T03:55:49.131Z,15.73
2017-10-15T03:58:16.773Z,15.17
2017-10-15T04:00:44.377Z,15.20
2017-10-15T04:03:12.001Z,15.13
2017-10-15T04:05:39.607Z,17.00
2017-10-15T04:08:07.262Z,15.27
2017-10-15T04:10:34.881Z,14.97
2017-10-15T04:13:02.488Z,15.10
2017-10-15T04:15:30.115Z,17.17
2017-10-15T04:17:57.722Z,15.13
2017-10-15T04:20:25.362Z,14.80
2017-10-15T04:22:52.963Z,14.50
2017-10-15T04:25:21.333Z,15.03
2017-10-15T04:27:49.863Z,14.77
2017-10-15T04:30:17.462Z,13.43
2017-10-15T04:32:45.869Z,13.90
2017-10-15T04:35:13.485Z,13.20
2017-10-15T04:37:41.089Z,13.30
2017-10-15T04:40:08.726Z,14.27
2017-10-15T04:42:36.346Z,18.50
2017-10-15T04:45:04.004Z,12.70
2017-10-15T04:47:31.619Z,17.50
2017-10-15T04:49:59.234Z,17.60
2017-10-15T04:52:26.875Z,19.20
2017-10-15T04:54:54.480Z,18.80
2017-10-15T04:57:22.113Z,18.00
2017-10-15T04:59:49.718Z,16.83
2017-10-15T05:02:18.167Z,17.60
2017-10-15T05:04:45.769Z,16.40
2017-10-15T05:07:14.165Z,16.40
2017-10-15T05:09:41.829Z,14.97
2017-10-15T05:12:09.442Z,15.73
2017-10-15T05:14:37.105Z,17.67
2017-10-15T05:17:04.713Z,15.67
2017-10-15T05:19:32.381Z,14.23
2017-10-15T05:21:59.991Z,13.90
2017-10-15T05:24:27.597Z,13.77
2017-10-15T05:26:55.229Z,15.83
2017-10-15T05:29:23.609Z,15.00
2017-10-15T05:31:52.001Z,14.67
2017-10-15T05:34:20.365Z,13.87
2017-10-15T05:36:48.796Z,14.40
2017-10-15T05:39:16.464Z,12.20
2017-10-15T05:41:44.070Z,14.17
2017-10-15T05:44:12.481Z,11.93
2017-10-15T05:46:40.157Z,12.10
2017-10-15T05:49:07.800Z,14.70
2017-10-15T05:51:35.401Z,12.60
2017-10-15T05:54:03.004Z,11.03
2017-10-15T05:56:31.401Z,12.53
2017-10-15T05:58:59.006Z,11.00
2017-10-15T06:01:26.667Z,12.37
2017-10-15T06:03:55.782Z,11.37
2017-10-15T06:06:24.222Z,10.63
2017-10-15T06:08:51.854Z,12.13
2017-10-15T06:11:19.455Z,11.97
2017-10-15T06:13:47.215Z,12.70
2017-10-15T06:16:14.822Z,12.10
2017-10-15T06:18:43.186Z,9.47
2017-10-15T06:21:10.825Z,13.17
2017-10-15T06:23:38.421Z,9.90
2017-10-15T06:26:06.824Z,13.53
2017-10-15T06:28:34.509Z,9.30
2017-10-15T06:31:02.114Z,9.20
2017-10-15T06:33:30.517Z,10.70
2017-10-15T06:35:58.150Z,10.07
2017-10-15T06:38:26.553Z,12.97
2017-10-15T06:40:54.168Z,8.77
2017-10-15T06:43:21.766Z,8.93
2017-10-15T06:45:49.409Z,9.77
2017-10-15T06:48:17.016Z,12.20
2017-10-15T06:50:44.654Z,9.60
2017-10-15T06:53:12.374Z,13.07
2017-10-15T06:55:39.981Z,10.30
2017-10-15T06:58:07.616Z,10.27
2017-10-15T07:00:35.229Z,11.07
2017-10-15T07:03:02.862Z,8.53
2017-10-15T07:05:30.489Z,9.60
2017-10-15T07:07:58.089Z,14.83
2017-10-15T07:10:25.735Z,11.07
2017-10-15T07:12:54.097Z,14.97
2017-10-15T07:15:21.772Z,8.47
2017-10-15T07:17:50.142Z,10.30
2017-10-15T07:20:17.883Z,7.53
2017-10-15T07:22:45.571Z,9.57
2017-10-15T07:25:13.973Z,12.20
2017-10-15T07:27:41.618Z,7.30
2017-10-15T07:30:10.030Z,9.67
2017-10-15T07:32:37.637Z,14.03
2017-10-15T07:35:05.338Z,14.87
2017-10-15T07:37:32.955Z,11.00
2017-10-15T07:40:00.590Z,9.67
2017-10-15T07:42:28.234Z,11.73
2017-10-15T07:44:55.877Z,9.47
2017-10-15T07:47:24.254Z,14.57
2017-10-15T07:49:52.634Z,13.43
2017-10-15T07:52:21.031Z,13.63
2017-10-15T07:54:48.655Z,12.87
2017-10-15T07:57:16.277Z,7.33
2017-10-15T07:59:43.884Z,14.10
2017-10-15T08:02:12.291Z,16.40
2017-10-15T08:04:39.945Z,10.00
2017-10-15T08:07:07.537Z,15.73
2017-10-15T08:09:35.171Z,15.37
2017-10-15T08:12:02.810Z,15.67
2017-10-15T08:14:31.214Z,9.80
2017-10-15T08:16:58.817Z,11.60
2017-10-15T08:19:26.443Z,18.17
2017-10-15T08:21:54.064Z,10.30
2017-10-15T08:24:21.670Z,9.43
2017-10-15T08:26:49.315Z,13.47
2017-10-15T08:29:16.953Z,9.50
2017-10-15T08:31:45.509Z,21.20
2017-10-15T08:34:13.369Z,9.97
2017-10-15T08:36:40.969Z,18.87
2017-10-15T08:39:09.395Z,14.73
2017-10-15T08:41:37.180Z,11.37
2017-10-15T08:44:04.797Z,12.10
2017-10-15T08:46:32.428Z,14.40
2017-10-15T08:49:00.794Z,16.37
2017-10-15T08:51:29.962Z,19.03
2017-10-15T08:53:57.557Z,13.13
2017-10-15T08:56:25.232Z,13.60
2017-10-15T08:58:53.651Z,8.30
2017-10-15T09:01:21.461Z,9.30
2017-10-15T09:03:49.109Z,10.53
2017-10-15T09:06:16.758Z,14.37
2017-10-15T09:08:44.538Z,14.47
2017-10-15T09:11:12.177Z,18.37
2017-10-15T09:13:39.777Z,8.20
2017-10-15T09:16:07.711Z,12.57
2017-10-15T09:18:35.333Z,10.03
2017-10-15T09:21:03.134Z,8.43
2017-10-15T09:23:30.785Z,8.47
2017-10-15T09:25:58.386Z,11.47
2017-10-15T09:28:26.127Z,7.50
2017-10-15T09:30:53.745Z,10.57
2017-10-15T09:33:21.457Z,15.57
2017-10-15T09:35:49.309Z,12.50
2017-10-15T09:38:16.925Z,13.03
2017-10-15T09:40:45.335Z,11.53
2017-10-15T09:43:13.113Z,14.33
2017-10-15T09:45:40.756Z,6.50
2017-10-15T09:48:08.410Z,9.10
2017-10-15T09:50:36.013Z,8.47
2017-10-15T09:53:03.662Z,8.50
2017-10-15T09:55:31.276Z,9.40
2017-10-15T09:58:00.661Z,9.37
2017-10-15T10:00:29.163Z,7.00
2017-10-15T10:02:57.587Z,5.73
2017-10-15T10:05:25.222Z,8.10
2017-10-15T10:07:52.835Z,7.43
2017-10-15T10:10:20.473Z,5.80
2017-10-15T10:12:48.239Z,4.40
2017-10-15T10:15:15.901Z,5.63
2017-10-15T10:17:43.542Z,6.00
2017-10-15T10:20:11.154Z,6.57
2017-10-15T10:22:39.557Z,6.67
2017-10-15T10:25:07.273Z,4.60
2017-10-15T10:27:34.887Z,4.47
2017-10-15T10:30:02.526Z,5.03
2017-10-15T10:32:30.903Z,4.53
2017-10-15T10:34:59.336Z,4.73
2017-10-15T10:37:26.947Z,4.43
2017-10-15T10:39:55.301Z,5.07
2017-10-15T10:42:22.939Z,4.43
2017-10-15T10:44:50.540Z,4.40
2017-10-15T10:47:18.951Z,4.70
2017-10-15T10:49:46.550Z,4.07
2017-10-15T10:52:14.205Z,3.90
2017-10-15T10:54:41.804Z,3.90
2017-10-15T10:57:10.166Z,4.27
2017-10-15T10:59:39.306Z,3.97
2017-10-15T11:02:06.905Z,4.20
2017-10-15T11:04:34.529Z,3.77
2017-10-15T11:07:02.126Z,3.70
2017-10-15T11:09:29.762Z,4.20
2017-10-15T11:11:57.440Z,3.17
2017-10-15T11:14:25.065Z,4.13
2017-10-15T11:16:52.698Z,3.57
2017-10-15T11:19:21.081Z,3.70
2017-10-15T11:21:49.468Z,4.10
2017-10-15T11:24:17.837Z,4.60
2017-10-15T11:26:46.256Z,3.70
2017-10-15T11:29:13.866Z,3.00
2017-10-15T11:31:41.479Z,3.60
2017-10-15T11:34:09.107Z,3.53
2017-10-15T11:36:37.469Z,3.20
2017-10-15T11:39:05.093Z,3.87
2017-10-15T11:41:32.697Z,3.10
2017-10-15T11:44:00.298Z,4.13
2017-10-15T11:46:27.929Z,3.97
2017-10-15T11:48:56.304Z,3.60
2017-10-15T11:51:24.700Z,3.90
2017-10-15T11:53:53.063Z,3.37
2017-10-15T11:56:21.473Z,3.90
2017-10-15T11:58:49.073Z,2.83
2017-10-15T12:01:16.693Z,4.50
2017-10-15T12:03:44.318Z,3.23
2017-10-15T12:06:12.692Z,3.67
2017-10-15T12:08:40.317Z,3.50
2017-10-15T12:11:07.909Z,3.50
2017-10-15T12:13:37.037Z,3.40
2017-10-15T12:16:04.639Z,3.80
2017-10-15T12:18:32.238Z,3.77
2017-10-15T12:21:00.677Z,3.33
2017-10-15T12:23:28.335Z,2.87
2017-10-15T12:25:55.960Z,3.13
2017-10-15T12:28:23.562Z,3.10
2017-10-15T12:30:51.158Z,3.13
2017-10-15T12:33:19.559Z,3.70
2017-10-15T12:35:47.179Z,3.00
2017-10-15T12:38:14.805Z,2.53
2017-10-15T12:40:42.409Z,2.53
2017-10-15T12:43:11.505Z,2.90
2017-10-15T12:45:39.132Z,3.50
2017-10-15T12:48:06.726Z,3.30
2017-10-15T12:50:34.365Z,3.00
2017-10-15T12:53:01.972Z,3.30
2017-10-15T12:55:30.357Z,2.70
2017-10-15T12:57:58.762Z,2.83
2017-10-15T13:00:26.367Z,2.77
2017-10-15T13:02:54.010Z,2.87
2017-10-15T13:05:21.610Z,3.13
2017-10-15T13:07:49.981Z,3.00
2017-10-15T13:10:18.453Z,2.73
2017-10-15T13:12:46.049Z,2.73
2017-10-15T13:15:13.673Z,2.53
2017-10-15T13:17:41.270Z,3.47
2017-10-15T13:20:08.980Z,2.87
2017-10-15T13:22:36.624Z,2.80
2017-10-15T13:25:04.242Z,2.67
2017-10-15T13:27:32.658Z,2.90
2017-10-15T13:30:00.259Z,2.70
2017-10-15T13:32:27.882Z,2.50
2017-10-15T13:34:55.585Z,2.60
2017-10-15T13:37:23.202Z,2.40
2017-10-15T13:39:50.847Z,2.77
2017-10-15T13:42:18.472Z,2.57
2017-10-15T13:44:46.102Z,2.70
2017-10-15T13:47:13.707Z,2.03
2017-10-15T13:49:42.076Z,2.80
2017-10-15T13:52:10.466Z,2.57
2017-10-15T13:54:38.846Z,2.50
2017-10-15T13:57:06.478Z,2.90
2017-10-15T13:59:34.077Z,2.50
2017-10-15T14:02:01.683Z,2.90
2017-10-15T14:04:29.462Z,2.53
2017-10-15T14:06:57.831Z,2.63
2017-10-15T14:09:25.599Z,2.73
2017-10-15T14:11:53.216Z,2.30
2017-10-15T14:14:20.814Z,2.23
2017-10-15T14:16:49.235Z,2.30
2017-10-15T14:19:17.602Z,2.50
2017-10-15T14:21:46.109Z,2.50
2017-10-15T14:24:14.465Z,2.40
2017-10-15T14:26:42.857Z,2.60
2017-10-15T14:29:10.478Z,2.43
2017-10-15T14:31:38.122Z,2.00
2017-10-15T14:34:05.724Z,2.40
2017-10-15T14:36:34.092Z,2.27
2017-10-15T14:39:01.705Z,2.37
2017-10-15T14:41:29.320Z,2.20
2017-10-15T14:43:57.713Z,2.30
2017-10-15T14:46:26.073Z,2.23
2017-10-15T14:48:53.669Z,2.50
2017-10-15T14:51:21.298Z,2.53
2017-10-15T14:53:49.670Z,2.50
2017-10-15T14:56:18.072Z,2.60
2017-10-15T14:58:46.434Z,2.20
2017-10-15T15:01:14.061Z,2.10
2017-10-15T15:03:41.687Z,2.40
2017-10-15T15:06:09.286Z,2.57
2017-10-15T15:08:36.918Z,2.47
2017-10-15T15:11:04.508Z,2.47
2017-10-15T15:13:32.157Z,2.20
2017-10-15T15:15:59.749Z,2.33
2017-10-15T15:18:27.350Z,2.40
2017-10-15T15:20:54.981Z,2.50
2017-10-15T15:23:23.354Z,2.47
2017-10-15T15:25:52.502Z,2.53
2017-10-15T15:28:20.117Z,2.20
2017-10-15T15:30:47.724Z,2.50
2017-10-15T15:33:15.357Z,2.60
2017-10-15T15:35:43.717Z,2.60
2017-10-15T15:38:12.120Z,2.50
2017-10-15T15:40:39.733Z,2.70
2017-10-15T15:43:07.317Z,2.63
2017-10-15T15:45:35.796Z,2.93
2017-10-15T15:48:04.265Z,2.43
2017-10-15T15:50:32.572Z,3.00
2017-10-15T15:53:00.933Z,2.00
2017-10-15T15:55:29.302Z,3.03
2017-10-15T15:57:56.921Z,3.47
2017-10-15T16:00:24.710Z,2.27
2017-10-15T16:02:52.575Z,2.60
2017-10-15T16:05:20.300Z,2.70
2017-10-15T16:07:48.028Z,3.03
2017-10-15T16:10:15.822Z,3.63
2017-10-15T16:12:43.531Z,3.03
2017-10-15T16:15:11.426Z,2.53
2017-10-15T16:17:39.916Z,3.03
2017-10-15T16:20:08.396Z,2.30
2017-10-15T16:22:36.941Z,3.30
2017-10-15T16:25:04.677Z,2.70
2017-10-15T16:27:32.458Z,3.00
2017-10-15T16:30:00.192Z,2.93
2017-10-15T16:32:28.356Z,3.20
2017-10-15T16:34:56.315Z,2.70
2017-10-15T16:37:24.102Z,3.10
2017-10-15T16:39:56.942Z,3.60
2017-10-15T16:42:24.659Z,3.73
2017-10-15T16:44:52.405Z,3.27
2017-10-15T16:47:20.196Z,3.80
2017-10-15T16:49:47.978Z,3.37
2017-10-15T16:52:15.778Z,2.80
2017-10-15T16:54:43.458Z,2.63
2017-10-15T16:57:11.171Z,3.77
2017-10-15T16:59:38.852Z,3.47
2017-10-15T17:02:06.628Z,3.40
2017-10-15T17:04:34.455Z,2.53
2017-10-15T17:07:02.263Z,3.60
2017-10-15T17:09:30.893Z,3.63
2017-10-15T17:11:58.668Z,3.33
2017-10-15T17:14:26.400Z,3.23
2017-10-15T17:16:54.156Z,4.00
2017-10-15T17:19:22.695Z,3.53
2017-10-15T17:21:50.561Z,3.80
2017-10-15T17:24:19.148Z,3.27
2017-10-15T17:26:46.994Z,3.60
2017-10-15T17:29:14.893Z,3.70
2017-10-15T17:31:43.464Z,4.23
2017-10-15T17:34:11.358Z,3.30
2017-10-15T17:36:39.973Z,3.80
2017-10-15T17:39:07.879Z,4.17
2017-10-15T17:41:35.753Z,4.07
2017-10-15T17:44:03.608Z,2.93
2017-10-15T17:46:31.402Z,2.97
2017-10-15T17:48:59.225Z,4.10
2017-10-15T17:51:27.040Z,3.63
2017-10-15T17:53:55.589Z,2.97
2017-10-15T17:56:23.261Z,3.20
2017-10-15T17:58:50.925Z,3.83
2017-10-15T18:01:18.535Z,3.60
2017-10-15T18:03:46.129Z,4.30
2017-10-15T18:06:13.756Z,4.20
2017-10-15T18:08:41.349Z,5.50
2017-10-15T18:11:08.985Z,3.93
2017-10-15T18:13:36.577Z,3.83
2017-10-15T18:16:04.173Z,4.27
2017-10-15T18:18:32.575Z,4.77
2017-10-15T18:21:00.169Z,3.13
2017-10-15T18:23:27.791Z,4.00
2017-10-15T18:25:56.162Z,3.67
2017-10-15T18:28:24.557Z,4.60
2017-10-15T18:30:52.170Z,4.47
2017-10-15T18:33:20.622Z,4.83
2017-10-15T18:35:48.265Z,3.87
2017-10-15T18:38:15.872Z,3.70
2017-10-15T18:40:43.507Z,4.10
2017-10-15T18:43:11.101Z,4.90
2017-10-15T18:45:39.469Z,4.43
2017-10-15T18:48:07.117Z,4.63
2017-10-15T18:50:34.714Z,3.60
2017-10-15T18:53:03.110Z,3.93
2017-10-15T18:55:31.475Z,4.47
2017-10-15T18:57:59.877Z,3.67
2017-10-15T19:00:27.478Z,3.60
2017-10-15T19:02:55.074Z,3.47
2017-10-15T19:05:23.465Z,4.80
2017-10-15T19:07:52.442Z,4.83
2017-10-15T19:10:20.846Z,3.57
2017-10-15T19:12:48.465Z,3.30
2017-10-15T19:15:16.228Z,4.30
2017-10-15T19:17:44.600Z,4.77
2017-10-15T19:20:12.228Z,4.60
2017-10-15T19:22:39.903Z,4.60
2017-10-15T19:25:07.546Z,4.57
2017-10-15T19:27:35.197Z,3.63
2017-10-15T19:30:02.810Z,4.43
2017-10-15T19:32:30.452Z,3.90
2017-10-15T19:34:58.054Z,4.50
2017-10-15T19:37:26.436Z,4.50
2017-10-15T19:39:54.797Z,4.60
2017-10-15T19:42:22.433Z,3.83
2017-10-15T19:44:50.021Z,4.03
2017-10-15T19:47:17.639Z,4.70
2017-10-15T19:49:45.264Z,4.43
2017-10-15T19:52:13.637Z,4.70
2017-10-15T19:54:41.267Z,4.03
2017-10-15T19:57:08.977Z,3.90
2017-10-15T19:59:36.737Z,4.53
2017-10-15T20:02:05.294Z,3.77
2017-10-15T20:04:33.043Z,4.23
2017-10-15T20:07:00.826Z,5.10
2017-10-15T20:09:29.350Z,4.07
2017-10-15T20:11:57.146Z,4.57
2017-10-15T20:14:24.885Z,5.80
2017-10-15T20:16:52.705Z,5.20
2017-10-15T20:19:20.464Z,4.07
2017-10-15T20:21:48.277Z,3.60
2017-10-15T20:24:16.057Z,3.87
2017-10-15T20:26:43.803Z,5.07
2017-10-15T20:29:11.583Z,4.60
2017-10-15T20:31:39.329Z,4.93
2017-10-15T20:34:07.104Z,5.10
2017-10-15T20:36:34.915Z,4.37
2017-10-15T20:39:02.698Z,4.43
2017-10-15T20:41:31.268Z,4.00
2017-10-15T20:43:59.024Z,4.97
2017-10-15T20:46:26.828Z,3.83
2017-10-15T20:48:54.644Z,4.07
2017-10-15T20:51:22.345Z,4.30
2017-10-15T20:53:50.709Z,5.27
2017-10-15T20:56:19.078Z,4.40
2017-10-15T20:58:46.707Z,5.63
2017-10-15T21:01:14.303Z,5.40
2017-10-15T21:03:41.921Z,5.23
2017-10-15T21:06:09.534Z,5.03
2017-10-15T21:08:37.938Z,5.63
2017-10-15T21:11:05.675Z,5.30
2017-10-15T21:13:34.069Z,4.30
2017-10-15T21:16:02.433Z,5.87
2017-10-15T21:18:30.873Z,4.27
2017-10-15T21:20:58.527Z,4.43
2017-10-15T21:23:26.117Z,4.30
2017-10-15T21:25:54.541Z,4.83
2017-10-15T21:28:22.137Z,5.63
2017-10-15T21:30:49.797Z,4.67
2017-10-15T21:33:17.426Z,4.10
2017-10-15T21:35:45.022Z,4.90
2017-10-15T21:38:12.655Z,5.53
2017-10-15T21:40:40.310Z,5.60
2017-10-15T21:43:07.953Z,5.77
2017-10-15T21:45:36.330Z,5.23
2017-10-15T21:48:04.727Z,5.10
2017-10-15T21:50:32.329Z,5.07
2017-10-15T21:52:59.926Z,5.00
2017-10-15T21:55:28.313Z,5.83
2017-10-15T21:57:56.669Z,4.47
2017-10-15T22:00:25.809Z,6.10
2017-10-15T22:02:53.402Z,5.30
2017-10-15T22:05:21.034Z,5.10
2017-10-15T22:07:48.636Z,5.13
2017-10-15T22:10:16.381Z,3.83
2017-10-15T22:12:43.974Z,5.13
2017-10-15T22:15:11.573Z,5.33
2017-10-15T22:17:39.243Z,5.10
2017-10-15T22:20:06.842Z,4.83
2017-10-15T22:22:34.484Z,5.07
2017-10-15T22:25:02.085Z,4.80
2017-10-15T22:27:30.474Z,4.70
2017-10-15T22:29:58.837Z,4.93
2017-10-15T22:32:27.250Z,6.33
2017-10-15T22:34:54.856Z,5.30
2017-10-15T22:37:22.457Z,5.63
2017-10-15T22:39:51.030Z,4.40
2017-10-15T22:42:19.460Z,4.67
2017-10-15T22:44:47.082Z,5.77
2017-10-15T22:47:14.686Z,5.60
2017-10-15T22:49:42.336Z,4.60
2017-10-15T22:52:09.947Z,5.13
2017-10-15T22:54:38.314Z,5.43
2017-10-15T22:57:05.937Z,4.70
2017-10-15T22:59:33.558Z,5.23
2017-10-15T23:02:01.957Z,4.83
2017-10-15T23:04:29.552Z,4.77
2017-10-15T23:06:57.186Z,5.30
2017-10-15T23:09:24.796Z,5.40
2017-10-15T23:11:52.405Z,4.70
2017-10-15T23:14:20.027Z,5.03
2017-10-15T23:16:47.623Z,5.40
2017-10-15T23:19:15.257Z,5.73
2017-10-15T23:21:43.626Z,5.30
2017-10-15T23:24:12.029Z,5.93
2017-10-15T23:26:40.393Z,5.00
2017-10-15T23:29:08.797Z,5.30
2017-10-15T23:31:36.395Z,5.70
2017-10-15T23:34:03.993Z,5.53
2017-10-15T23:36:32.377Z,5.60
2017-10-15T23:39:00.744Z,5.53
2017-10-15T23:41:29.155Z,5.90
2017-10-15T23:43:56.761Z,4.60
2017-10-15T23:46:24.411Z,5.47
2017-10-15T23:48:52.008Z,5.30
2017-10-15T23:51:20.377Z,5.67
2017-10-15T23:53:48.000Z,5.63
2017-10-15T23:56:15.593Z,5.33
2017-10-15T23:58:44.008Z,5.13
